NCAR-RAP Real-Time Weather Data

Output produced by METARs form (08 May 2021  02:10 UTC)
found at http://weather.rap.ucar.edu/surface/
 
KDGW 080153Z AUTO 15018KT 10SM CLR 19/04 A2973 RMK AO2 SLP027 T01940044
KDGW 080053Z AUTO 17020G28KT 10SM SCT110 22/05 A2976 RMK AO2 PK WND 13031/0001 SLP040 T02220050
KDGW 072353Z AUTO 14021G30KT 10SM CLR 23/06 A2977 RMK AO2 PK WND 15032/2336 SLP046 T02330061 10250 20211 56023
KDGW 072253Z AUTO 15020G29KT 10SM CLR 23/02 A2978 RMK AO2 PK WND 15033/2237 SLP049 T02280022
KDGW 072153Z AUTO 13021G27KT 10SM CLR 25/02 A2982 RMK AO2 PK WND 13027/2153 SLP054 T02500022
KDGW 072053Z AUTO 13018G26KT 10SM CLR 25/02 A2985 RMK AO2 PK WND 13026/2046 SLP064 T02500022 56027
KDGW 071953Z AUTO 15016G22KT 10SM CLR 23/02 A2988 RMK AO2 SLP078 T02280022
KDGW 071853Z AUTO 14013KT 10SM CLR 22/03 A2990 RMK AO2 SLP086 T02170028
KDGW 071753Z AUTO 12010KT 10SM CLR 21/03 A2994 RMK AO2 SLP100 T02060028 10206 20017 58016
KDGW 071653Z AUTO 14008KT 10SM CLR 19/03 A2996 RMK AO2 SLP109 T01890033
KDGW 071553Z AUTO 13009KT 10SM CLR 16/04 A2997 RMK AO2 SLP114 T01610039
KDGW 071453Z AUTO 16005KT 10SM CLR 12/03 A2999 RMK AO2 SLP129 T01220033 58009
KDGW 071353Z AUTO 14004KT 10SM CLR 09/02 A3002 RMK AO2 SLP136 T00890022
KDGW 071253Z AUTO 00000KT 10SM CLR 06/02 A3002 RMK AO2 SLP136 T00560017